Historique des mesures à Cassis (13260), France
Quotidien Résumé Novembre 18, 2017 Unités:  Métrique    US   Métrique/US
« Précédent (Jour)
Suivant (Jour) »
Quotidien Hebdomadaire Mensuel Annuel Période au choix
  Maximum: Minimum: Moyenne:
Température: TemperatureC °C 9.3 °C 10.9 °C
Point de rosée: DewpointC °C 0.7 °C 3.2 °C
Humidité: Humidity % 53 % 56 %
Vitesse du vent: 0 km/h 0 km/h 3.4 km/h
Rafales: 0 km/h - -
Vent:- - South
Pression: PressurehPa hPa 1013.1 hPa -
Précipitations: 0.0 mm    
Historical Graphs
 
 
Mesures pour : Novembre 18, 2017
Heure Temperature Point de rosée Pression Vent Vitesse du vent Rafales Humidité Pluie (par heure) Conditions
TemperatureC °C DewpointC °C PressurehPa hPa Calm     Humidity % HourlyPrecipMM mm SoftwareType W/m2
00:10 10.5 °C 2.6 °C 1013.4 hPa Calm     58 % 0.0 mm open2300-1.11 W/m2
01:11 10.4 °C 2.4 °C 1013.4 hPa Calm     58 % 0.0 mm open2300-1.11 W/m2
02:10 10.1 °C 1.9 °C 1013.1 hPa Calm     57 % 0.0 mm open2300-1.11 W/m2
03:11 9.9 °C 1.5 °C 1013.4 hPa Calm     56 % 0.0 mm open2300-1.11 W/m2
04:10 9.6 °C 1.0 °C 1013.1 hPa Calm     55 % 0.0 mm open2300-1.11 W/m2
05:11 9.3 °C 0.7 °C 1013.4 hPa Calm     55 % 0.0 mm open2300-1.11 W/m2
06:10 9.4 °C 0.8 °C 1013.4 hPa Calm     55 % 0.0 mm open2300-1.11 W/m2
07:11 9.5 °C 1.1 °C 1014.1 hPa Calm     56 % 0.0 mm open2300-1.11 W/m2
08:10 9.6 °C 1.5 °C 1014.1 hPa Calm     57 % 0.0 mm open2300-1.11 W/m2
09:11 10.9 °C 2.4 °C 1014.8 hPa Calm     56 % 0.0 mm open2300-1.11 W/m2
10:10 12.1 °C 3.8 °C 1015.1 hPa Calm   2.9 km/h 57 % 0.0 mm open2300-1.11 W/m2
11:11 13.8 °C 4.9 °C 1015.1 hPa Calm     55 % 0.0 mm open2300-1.11 W/m2
12:10 14.8 °C 6.6 °C 1015.1 hPa Calm     58 % 0.0 mm open2300-1.11 W/m2
13:11 14.8 °C 7.6 °C 1014.8 hPa Calm   3.4 km/h 62 % 0.0 mm open2300-1.11 W/m2
14:10 14.9 °C 7.9 °C 1014.4 hPa South 8.9 km/h 8.9 km/h 63 % 0.0 mm open2300-1.11 W/m2
15:11 14.7 °C 5.2 °C 1014.1 hPa Calm     53 % 0.0 mm open2300-1.11 W/m2
16:10 14.4 °C 4.9 °C 1014.1 hPa WNW 22.5 km/h 31.9 km/h 53 % 0.0 mm open2300-1.11 W/m2
17:11 12.8 °C 3.9 °C 1014.1 hPa WNW 24.3 km/h 24.8 km/h 55 % 0.0 mm open2300-1.11 W/m2
18:10 11.2 °C 3.4 °C 1014.4 hPa NNE 7.6 km/h 8 km/h 59 % 0.0 mm open2300-1.11 W/m2
19:11 10.3 °C 3.1 °C 1014.8 hPa North 10.9 km/h 29.5 km/h 61 % 0.0 mm open2300-1.11 W/m2
20:10 10.2 °C 3.2 °C 1014.8 hPa NW 10.9 km/h 10.9 km/h 62 % 0.0 mm open2300-1.11 W/m2
21:11 10.1 °C 3.1 °C 1014.4 hPa Calm   9.3 km/h 62 % 0.0 mm open2300-1.11 W/m2
22:10 9.9 °C 2.9 °C 1014.8 hPa Calm     62 % 0.0 mm open2300-1.11 W/m2
23:11 9.6 °C 2.7 °C 1014.4 hPa Calm     62 % 0.0 mm open2300-1.11 W/m2
Observations météo à CASSIS
WU-History script by Weather Underground - 1 mb